createdAt,value
2022-09-18T00:01:34.220Z,7.09
2022-09-18T00:04:08.271Z,7.06
2022-09-18T00:06:39.806Z,7.04
2022-09-18T00:09:14.245Z,6.96
2022-09-18T00:11:46.031Z,6.94
2022-09-18T00:14:19.103Z,6.87
2022-09-18T00:16:46.393Z,6.81
2022-09-18T00:19:17.028Z,6.79
2022-09-18T00:21:48.802Z,6.79
2022-09-18T00:24:16.767Z,6.80
2022-09-18T00:26:44.945Z,6.78
2022-09-18T00:29:14.077Z,6.75
2022-09-18T00:31:42.017Z,6.74
2022-09-18T00:34:13.034Z,6.74
2022-09-18T00:36:41.478Z,6.71
2022-09-18T00:39:09.418Z,6.73
2022-09-18T00:41:40.982Z,6.71
2022-09-18T00:44:38.187Z,6.67
2022-09-18T00:47:11.380Z,6.69
2022-09-18T00:49:59.970Z,6.72
2022-09-18T00:52:35.770Z,6.76
2022-09-18T00:55:10.317Z,6.80
2022-09-18T00:57:46.025Z,6.82
2022-09-18T01:00:14.283Z,6.82
2022-09-18T01:02:44.261Z,6.81
2022-09-18T01:05:17.099Z,6.77
2022-09-18T01:08:09.007Z,6.79
2022-09-18T01:11:01.086Z,6.73
2022-09-18T01:14:15.854Z,6.70
2022-09-18T01:17:12.729Z,6.66
2022-09-18T01:20:25.789Z,6.64
2022-09-18T01:23:30.156Z,6.63
2022-09-18T01:26:34.200Z,6.62
2022-09-18T01:29:18.761Z,6.64
2022-09-18T01:32:46.968Z,6.63
2022-09-18T01:35:40.070Z,6.64
2022-09-18T01:38:18.059Z,6.66
2022-09-18T01:40:53.505Z,6.68
2022-09-18T01:43:24.846Z,6.70
2022-09-18T01:45:56.457Z,6.65
2022-09-18T01:48:50.127Z,6.70
2022-09-18T01:51:28.348Z,6.71
2022-09-18T01:54:05.582Z,6.67
2022-09-18T01:57:01.827Z,6.70
2022-09-18T01:59:42.884Z,6.71
2022-09-18T02:02:20.947Z,6.73
2022-09-18T02:04:56.526Z,6.77
2022-09-18T02:07:51.867Z,6.79
2022-09-18T02:10:24.042Z,6.75
2022-09-18T02:12:56.217Z,6.82
2022-09-18T02:15:27.191Z,6.89
2022-09-18T02:18:04.850Z,6.91
2022-09-18T02:20:36.188Z,6.93
2022-09-18T02:23:07.565Z,6.94
2022-09-18T02:26:01.129Z,6.94
2022-09-18T02:28:30.744Z,6.95
2022-09-18T02:30:58.032Z,6.94
2022-09-18T02:33:33.801Z,6.97
2022-09-18T02:36:42.794Z,6.98
2022-09-18T02:39:30.576Z,6.98
2022-09-18T02:42:03.535Z,7.02
2022-09-18T02:44:47.987Z,7.02
2022-09-18T02:47:54.157Z,7.04
2022-09-18T02:50:59.490Z,7.03
2022-09-18T02:53:38.125Z,7.05
2022-09-18T02:56:45.496Z,6.92
2022-09-18T02:59:16.482Z,7.05
2022-09-18T03:01:46.638Z,7.09
2022-09-18T03:04:21.337Z,7.13
2022-09-18T03:06:48.607Z,7.15
2022-09-18T03:09:15.822Z,7.19
2022-09-18T03:11:43.141Z,7.19
2022-09-18T03:14:14.384Z,7.24
2022-09-18T03:16:42.133Z,7.25
2022-09-18T03:19:09.732Z,7.23
2022-09-18T03:21:37.387Z,7.26
2022-09-18T03:24:05.022Z,7.30
2022-09-18T03:26:32.821Z,7.29
2022-09-18T03:29:01.964Z,7.31
2022-09-18T03:31:29.666Z,7.28
2022-09-18T03:33:57.342Z,7.29
2022-09-18T03:36:25.082Z,7.29
2022-09-18T03:38:57.380Z,7.29
2022-09-18T03:41:24.573Z,7.31
2022-09-18T03:43:51.730Z,7.31
2022-09-18T03:46:19.562Z,7.31
2022-09-18T03:48:46.710Z,7.33
2022-09-18T03:51:14.276Z,7.32
2022-09-18T03:53:41.459Z,7.34
2022-09-18T03:56:08.565Z,7.34
2022-09-18T03:58:35.685Z,7.29
2022-09-18T04:01:02.875Z,7.30
2022-09-18T04:03:30.164Z,7.29
2022-09-18T04:05:57.349Z,7.30
2022-09-18T04:08:24.903Z,7.26
2022-09-18T04:10:52.388Z,7.33
2022-09-18T04:13:20.045Z,7.29
2022-09-18T04:15:51.088Z,7.31
2022-09-18T04:18:19.572Z,7.28
2022-09-18T04:20:50.697Z,7.29
2022-09-18T04:23:24.322Z,7.25
2022-09-18T04:25:51.598Z,7.22
2022-09-18T04:28:18.752Z,7.21
2022-09-18T04:30:47.534Z,7.19
2022-09-18T04:33:16.108Z,7.17
2022-09-18T04:35:43.370Z,7.17
2022-09-18T04:38:10.555Z,7.20
2022-09-18T04:40:37.843Z,7.19
2022-09-18T04:43:05.067Z,7.10
2022-09-18T04:45:32.300Z,7.10
2022-09-18T04:47:59.561Z,7.10
2022-09-18T04:50:26.837Z,7.09
2022-09-18T04:52:54.085Z,7.10
2022-09-18T04:55:21.220Z,7.09
2022-09-18T04:57:51.239Z,7.10
2022-09-18T05:00:21.547Z,7.09
2022-09-18T05:02:48.755Z,7.09
2022-09-18T05:05:16.043Z,7.14
2022-09-18T05:07:43.242Z,7.13
2022-09-18T05:10:10.731Z,7.13
2022-09-18T05:12:41.124Z,7.13
2022-09-18T05:15:11.481Z,7.16
2022-09-18T05:17:39.632Z,7.16
2022-09-18T05:20:09.520Z,7.18
2022-09-18T05:22:37.223Z,7.18
2022-09-18T05:25:05.571Z,7.22
2022-09-18T05:27:33.290Z,7.25
2022-09-18T05:30:00.525Z,7.26
2022-09-18T05:32:28.503Z,7.27
2022-09-18T05:34:55.997Z,7.30
2022-09-18T05:37:24.041Z,7.34
2022-09-18T05:39:51.397Z,7.33
2022-09-18T05:42:18.688Z,7.38
2022-09-18T05:44:45.811Z,7.44
2022-09-18T05:47:12.978Z,7.50
2022-09-18T05:49:40.106Z,7.56
2022-09-18T05:52:07.292Z,7.62
2022-09-18T05:54:34.604Z,7.70
2022-09-18T05:57:01.835Z,7.74
2022-09-18T05:59:29.019Z,7.79
2022-09-18T06:01:56.225Z,7.81
2022-09-18T06:04:23.574Z,7.85
2022-09-18T06:06:50.883Z,7.90
2022-09-18T06:09:17.992Z,8.00
2022-09-18T06:11:45.180Z,8.05
2022-09-18T06:14:12.449Z,8.05
2022-09-18T06:16:42.363Z,8.08
2022-09-18T06:19:10.100Z,8.13
2022-09-18T06:21:37.446Z,8.21
2022-09-18T06:24:04.761Z,8.19
2022-09-18T06:26:32.044Z,8.26
2022-09-18T06:28:59.197Z,8.34
2022-09-18T06:31:26.517Z,8.37
2022-09-18T06:33:53.896Z,8.39
2022-09-18T06:36:21.624Z,8.40
2022-09-18T06:38:51.988Z,8.46
2022-09-18T06:41:19.365Z,8.49
2022-09-18T06:43:47.311Z,8.55
2022-09-18T06:46:14.735Z,8.58
2022-09-18T06:48:42.096Z,8.59
2022-09-18T06:51:09.890Z,8.63
2022-09-18T06:53:37.276Z,8.66
2022-09-18T06:56:04.858Z,8.70
2022-09-18T06:58:32.229Z,8.71
2022-09-18T07:01:00.692Z,8.72
2022-09-18T07:03:28.227Z,8.74
2022-09-18T07:05:55.516Z,8.79
2022-09-18T07:08:22.744Z,8.84
2022-09-18T07:10:49.959Z,8.89
2022-09-18T07:13:17.167Z,8.99
2022-09-18T07:15:47.175Z,8.97
2022-09-18T07:18:15.069Z,9.01
2022-09-18T07:20:42.844Z,9.09
2022-09-18T07:23:10.282Z,9.18
2022-09-18T07:25:38.159Z,9.25
2022-09-18T07:28:08.420Z,9.30
2022-09-18T07:30:37.889Z,9.36
2022-09-18T07:33:09.014Z,9.42
2022-09-18T07:35:42.615Z,9.51
2022-09-18T07:38:13.685Z,9.58
2022-09-18T07:40:41.313Z,9.60
2022-09-18T07:43:11.236Z,9.63
2022-09-18T07:45:38.850Z,9.60
2022-09-18T07:48:07.711Z,9.68
2022-09-18T07:50:35.043Z,9.68
2022-09-18T07:53:04.774Z,9.70
2022-09-18T07:55:36.124Z,9.85
2022-09-18T07:58:06.922Z,9.91
2022-09-18T08:00:37.919Z,10.00
2022-09-18T08:03:14.084Z,10.05
2022-09-18T08:05:42.409Z,10.06
2022-09-18T08:08:14.725Z,10.12
2022-09-18T08:10:44.596Z,10.16
2022-09-18T08:13:12.952Z,10.19
2022-09-18T08:15:42.738Z,10.25
2022-09-18T08:18:11.065Z,10.30
2022-09-18T08:20:38.786Z,10.29
2022-09-18T08:23:08.283Z,10.37
2022-09-18T08:25:36.271Z,10.41
2022-09-18T08:28:06.836Z,10.49
2022-09-18T08:30:35.254Z,10.52
2022-09-18T08:33:06.507Z,10.56
2022-09-18T08:35:34.792Z,10.61
2022-09-18T08:38:02.319Z,10.69
2022-09-18T08:40:46.391Z,10.79
2022-09-18T08:43:47.524Z,10.86
2022-09-18T08:46:34.698Z,10.96
2022-09-18T08:49:39.144Z,11.04
2022-09-18T08:52:15.649Z,11.06
2022-09-18T08:55:05.224Z,11.09
2022-09-18T08:58:00.496Z,11.14
2022-09-18T09:00:56.757Z,11.20
2022-09-18T09:04:02.170Z,11.33
2022-09-18T09:06:54.538Z,11.38
2022-09-18T09:09:45.043Z,11.46
2022-09-18T09:13:15.459Z,11.64
2022-09-18T09:16:31.623Z,11.77
2022-09-18T09:19:37.664Z,11.84
2022-09-18T09:22:46.385Z,11.87
2022-09-18T09:25:45.789Z,11.86
2022-09-18T09:28:27.818Z,12.02
2022-09-18T09:31:01.960Z,12.07
2022-09-18T09:33:53.125Z,12.17
2022-09-18T09:36:27.057Z,12.17
2022-09-18T09:39:16.229Z,12.32
2022-09-18T09:42:02.805Z,12.35
2022-09-18T09:44:51.191Z,12.49
2022-09-18T09:47:50.893Z,12.57
2022-09-18T09:50:35.913Z,12.69
2022-09-18T09:53:09.346Z,12.75
2022-09-18T09:56:12.198Z,12.73
2022-09-18T09:59:15.446Z,12.74
2022-09-18T10:02:15.372Z,12.86
2022-09-18T10:04:57.788Z,12.93
2022-09-18T10:07:37.399Z,12.95
2022-09-18T10:10:38.639Z,12.93
2022-09-18T10:13:21.684Z,12.98
2022-09-18T10:15:55.587Z,13.05
2022-09-18T10:18:44.300Z,13.14
2022-09-18T10:21:16.640Z,13.10
2022-09-18T10:24:27.584Z,13.01
2022-09-18T10:27:11.652Z,12.89
2022-09-18T10:29:39.717Z,12.88
2022-09-18T10:32:08.097Z,13.09
2022-09-18T10:34:46.735Z,13.44
2022-09-18T10:37:17.373Z,13.89
2022-09-18T10:40:00.450Z,14.88
2022-09-18T10:42:36.235Z,16.16
2022-09-18T10:45:30.491Z,17.03
2022-09-18T10:48:18.055Z,17.00
2022-09-18T10:51:00.966Z,16.73
2022-09-18T10:53:37.975Z,16.33
2022-09-18T10:56:17.043Z,15.83
2022-09-18T10:58:44.204Z,15.55
2022-09-18T11:01:13.842Z,15.36
2022-09-18T11:04:04.307Z,15.33
2022-09-18T11:06:36.105Z,15.71
2022-09-18T11:09:10.572Z,16.63
2022-09-18T11:11:44.841Z,16.90
2022-09-18T11:14:27.351Z,17.17
2022-09-18T11:17:02.117Z,17.53
2022-09-18T11:19:30.486Z,17.91
2022-09-18T11:22:03.585Z,18.39
2022-09-18T11:24:34.589Z,18.69
2022-09-18T11:27:19.545Z,18.66
2022-09-18T11:29:47.320Z,18.29
2022-09-18T11:32:30.726Z,17.76
2022-09-18T11:35:06.804Z,17.64
2022-09-18T11:37:43.442Z,17.75
2022-09-18T11:40:26.676Z,17.61
2022-09-18T11:42:56.002Z,17.67
2022-09-18T11:45:43.959Z,18.00
2022-09-18T11:48:38.387Z,17.99
2022-09-18T11:51:18.210Z,18.01
2022-09-18T11:53:51.973Z,18.30
2022-09-18T11:56:46.126Z,18.53
2022-09-18T11:59:35.100Z,18.32
2022-09-18T12:02:29.452Z,17.77
2022-09-18T12:05:20.684Z,17.47
2022-09-18T12:08:10.797Z,17.79
2022-09-18T12:11:15.415Z,18.24
2022-09-18T12:13:58.669Z,18.52
2022-09-18T12:17:08.912Z,18.30
2022-09-18T12:19:50.686Z,18.18
2022-09-18T12:22:46.593Z,18.30
2022-09-18T12:25:16.420Z,18.11
2022-09-18T12:27:55.554Z,17.86
2022-09-18T12:30:55.490Z,17.58
2022-09-18T12:34:04.150Z,17.17
2022-09-18T12:37:01.128Z,16.79
2022-09-18T12:40:02.088Z,16.51
2022-09-18T12:43:26.853Z,16.24
2022-09-18T12:46:26.993Z,15.98
2022-09-18T12:49:28.485Z,16.01
2022-09-18T12:52:25.815Z,15.91
2022-09-18T12:55:24.694Z,15.72
2022-09-18T12:58:24.342Z,15.60
2022-09-18T13:00:53.442Z,15.72
2022-09-18T13:03:36.346Z,15.76
2022-09-18T13:06:14.373Z,15.62
2022-09-18T13:09:06.803Z,15.63
2022-09-18T13:11:43.796Z,15.66
2022-09-18T13:14:32.517Z,15.65
2022-09-18T13:17:34.015Z,15.72
2022-09-18T13:20:21.053Z,15.71
2022-09-18T13:22:53.917Z,15.73
2022-09-18T13:25:40.787Z,16.04
2022-09-18T13:28:17.191Z,16.49
2022-09-18T13:30:49.228Z,16.83
2022-09-18T13:33:26.566Z,17.05
2022-09-18T13:35:57.575Z,17.03
2022-09-18T13:38:28.694Z,16.85
2022-09-18T13:41:14.110Z,16.47
2022-09-18T13:43:57.265Z,16.23
2022-09-18T13:46:41.267Z,16.07
2022-09-18T13:49:27.110Z,15.88
2022-09-18T13:51:54.804Z,16.00
2022-09-18T13:54:28.815Z,16.30
2022-09-18T13:57:04.940Z,16.23
2022-09-18T13:59:56.180Z,16.23
2022-09-18T14:02:42.488Z,16.52
2022-09-18T14:05:34.593Z,16.74
2022-09-18T14:08:21.298Z,16.67
2022-09-18T14:11:05.403Z,16.81
2022-09-18T14:13:47.067Z,16.93
2022-09-18T14:16:20.262Z,16.92
2022-09-18T14:18:47.525Z,16.80
2022-09-18T14:21:17.723Z,16.63
2022-09-18T14:23:47.973Z,16.40
2022-09-18T14:26:30.336Z,16.40
2022-09-18T14:29:09.656Z,16.34
2022-09-18T14:32:01.403Z,16.21
2022-09-18T14:34:39.840Z,16.17
2022-09-18T14:37:29.403Z,16.07
2022-09-18T14:39:58.453Z,15.99
2022-09-18T14:42:39.607Z,15.89
2022-09-18T14:45:31.844Z,15.84
2022-09-18T14:48:20.276Z,15.73
2022-09-18T14:51:22.485Z,15.91
2022-09-18T14:53:54.565Z,16.14
2022-09-18T14:56:30.944Z,16.36
2022-09-18T14:59:04.678Z,16.60
2022-09-18T15:01:40.510Z,16.83
2022-09-18T15:04:21.020Z,16.86
2022-09-18T15:06:54.680Z,16.95
2022-09-18T15:09:32.503Z,17.29
2022-09-18T15:12:02.879Z,17.71
2022-09-18T15:14:41.801Z,18.00
2022-09-18T15:17:25.957Z,18.27
2022-09-18T15:20:17.211Z,18.47
2022-09-18T15:22:44.511Z,18.56
2022-09-18T15:25:30.726Z,18.57
2022-09-18T15:28:04.366Z,18.53
2022-09-18T15:30:40.225Z,18.51
2022-09-18T15:33:17.313Z,18.53
2022-09-18T15:35:46.134Z,18.51
2022-09-18T15:38:25.291Z,18.45
2022-09-18T15:40:53.566Z,18.51
2022-09-18T15:43:29.785Z,18.52
2022-09-18T15:46:07.224Z,18.49
2022-09-18T15:48:46.678Z,18.26
2022-09-18T15:51:17.090Z,17.90
2022-09-18T15:54:12.541Z,17.39
2022-09-18T15:56:57.856Z,17.10
2022-09-18T15:59:35.735Z,16.80
2022-09-18T16:02:38.033Z,16.55
2022-09-18T16:05:14.497Z,16.28
2022-09-18T16:08:01.004Z,16.05
2022-09-18T16:10:51.223Z,15.86
2022-09-18T16:13:18.309Z,15.69
2022-09-18T16:15:46.445Z,15.54
2022-09-18T16:18:16.720Z,15.39
2022-09-18T16:21:03.299Z,15.27
2022-09-18T16:23:51.895Z,15.13
2022-09-18T16:26:45.554Z,15.02
2022-09-18T16:29:23.346Z,14.98
2022-09-18T16:31:50.505Z,14.94
2022-09-18T16:34:22.147Z,14.89
2022-09-18T16:36:50.759Z,14.86
2022-09-18T16:39:21.742Z,14.76
2022-09-18T16:41:49.402Z,14.68
2022-09-18T16:44:18.317Z,14.58
2022-09-18T16:46:53.899Z,14.47
2022-09-18T16:49:27.986Z,14.38
2022-09-18T16:51:56.660Z,14.31
2022-09-18T16:54:25.475Z,14.25
2022-09-18T16:57:18.027Z,14.14
2022-09-18T16:59:45.672Z,14.07
2022-09-18T17:02:17.998Z,14.04
2022-09-18T17:04:45.144Z,13.96
2022-09-18T17:07:12.548Z,13.93
2022-09-18T17:09:39.781Z,13.85
2022-09-18T17:12:07.203Z,13.76
2022-09-18T17:14:34.504Z,13.72
2022-09-18T17:17:02.280Z,13.68
2022-09-18T17:19:31.822Z,13.66
2022-09-18T17:21:59.004Z,13.61
2022-09-18T17:24:26.336Z,13.58
2022-09-18T17:26:53.739Z,13.54
2022-09-18T17:29:21.358Z,13.49
2022-09-18T17:31:48.723Z,13.45
2022-09-18T17:34:17.368Z,13.43
2022-09-18T17:36:45.499Z,13.39
2022-09-18T17:39:13.368Z,13.30
2022-09-18T17:41:40.605Z,13.21
2022-09-18T17:44:07.769Z,13.17
2022-09-18T17:46:35.383Z,13.16
2022-09-18T17:49:05.932Z,13.12
2022-09-18T17:51:33.528Z,13.08
2022-09-18T17:54:05.060Z,13.05
2022-09-18T17:56:33.891Z,13.01
2022-09-18T17:59:08.529Z,12.99
2022-09-18T18:01:41.876Z,12.97
2022-09-18T18:04:09.743Z,12.84
2022-09-18T18:06:37.026Z,12.80
2022-09-18T18:09:06.945Z,12.79
2022-09-18T18:11:34.203Z,12.76
2022-09-18T18:14:01.798Z,12.77
2022-09-18T18:16:31.605Z,12.69
2022-09-18T18:19:04.858Z,12.62
2022-09-18T18:21:35.679Z,12.60
2022-09-18T18:24:07.078Z,12.54
2022-09-18T18:26:35.101Z,12.49
2022-09-18T18:29:02.332Z,12.42
2022-09-18T18:31:29.724Z,12.36
2022-09-18T18:33:57.284Z,12.33
2022-09-18T18:36:28.811Z,12.26
2022-09-18T18:38:59.254Z,12.19
2022-09-18T18:41:29.667Z,12.11
2022-09-18T18:44:00.925Z,12.03
2022-09-18T18:46:30.681Z,11.95
2022-09-18T18:49:01.310Z,11.88
2022-09-18T18:51:32.652Z,11.80
2022-09-18T18:54:00.746Z,11.76
2022-09-18T18:56:29.185Z,11.70
2022-09-18T18:59:00.084Z,11.60
2022-09-18T19:01:29.363Z,11.53
2022-09-18T19:04:06.775Z,11.48
2022-09-18T19:06:39.042Z,11.46
2022-09-18T19:09:19.848Z,11.45
2022-09-18T19:11:50.400Z,11.38
2022-09-18T19:14:24.594Z,11.31
2022-09-18T19:16:53.981Z,11.25
2022-09-18T19:19:26.245Z,11.17
2022-09-18T19:21:54.643Z,11.17
2022-09-18T19:24:22.449Z,11.14
2022-09-18T19:26:50.161Z,11.10
2022-09-18T19:29:19.845Z,11.03
2022-09-18T19:31:49.092Z,10.98
2022-09-18T19:34:19.823Z,10.93
2022-09-18T19:36:48.265Z,10.92
2022-09-18T19:39:17.322Z,10.89
2022-09-18T19:42:04.378Z,10.83
2022-09-18T19:45:05.233Z,10.77
2022-09-18T19:47:43.251Z,10.69
2022-09-18T19:50:26.524Z,10.65
2022-09-18T19:52:54.651Z,10.64
2022-09-18T19:55:22.702Z,10.61
2022-09-18T19:57:53.671Z,10.57
2022-09-18T20:00:21.264Z,10.51
2022-09-18T20:02:48.667Z,10.47
2022-09-18T20:05:16.205Z,10.48
2022-09-18T20:07:44.009Z,10.46
2022-09-18T20:10:15.181Z,10.45
2022-09-18T20:12:42.749Z,10.43
2022-09-18T20:15:11.930Z,10.37
2022-09-18T20:17:39.994Z,10.27
2022-09-18T20:20:08.990Z,10.24
2022-09-18T20:22:37.506Z,10.20
2022-09-18T20:25:05.447Z,10.16
2022-09-18T20:27:38.502Z,10.08
2022-09-18T20:30:09.470Z,10.08
2022-09-18T20:32:37.406Z,10.04
2022-09-18T20:35:05.762Z,10.04
2022-09-18T20:37:33.039Z,10.01
2022-09-18T20:40:01.070Z,10.00
2022-09-18T20:42:33.536Z,9.98
2022-09-18T20:45:02.242Z,9.93
2022-09-18T20:47:38.519Z,9.89
2022-09-18T20:50:16.772Z,9.84
2022-09-18T20:52:44.398Z,9.84
2022-09-18T20:55:16.417Z,9.86
2022-09-18T20:57:45.267Z,9.82
2022-09-18T21:00:14.175Z,9.79
2022-09-18T21:02:41.779Z,9.78
2022-09-18T21:05:12.024Z,9.76
2022-09-18T21:07:40.466Z,9.72
2022-09-18T21:10:08.483Z,9.73
2022-09-18T21:12:35.704Z,9.72
2022-09-18T21:15:03.914Z,9.74
2022-09-18T21:17:31.196Z,9.73
2022-09-18T21:19:58.364Z,9.75
2022-09-18T21:22:25.656Z,9.80
2022-09-18T21:24:52.824Z,9.84
2022-09-18T21:27:20.391Z,9.90
2022-09-18T21:29:47.607Z,9.93
2022-09-18T21:32:14.763Z,10.00
2022-09-18T21:34:41.985Z,10.01
2022-09-18T21:37:11.438Z,10.02
2022-09-18T21:39:39.969Z,10.01
2022-09-18T21:42:08.490Z,10.00
2022-09-18T21:44:36.612Z,9.96
2022-09-18T21:47:08.817Z,9.97
2022-09-18T21:49:36.227Z,9.96
2022-09-18T21:52:07.946Z,9.97
2022-09-18T21:54:35.800Z,10.01
2022-09-18T21:57:04.476Z,9.99
2022-09-18T21:59:32.653Z,10.00
2022-09-18T22:02:00.558Z,10.00
2022-09-18T22:04:31.733Z,9.99
2022-09-18T22:07:01.286Z,9.99
2022-09-18T22:09:34.774Z,9.98
2022-09-18T22:12:02.388Z,9.97
2022-09-18T22:14:32.982Z,9.97
2022-09-18T22:17:04.206Z,10.00
2022-09-18T22:19:32.331Z,10.00
2022-09-18T22:22:01.051Z,10.04
2022-09-18T22:24:29.136Z,10.06
2022-09-18T22:27:01.022Z,10.08
2022-09-18T22:29:32.583Z,10.08
2022-09-18T22:32:01.248Z,10.10
2022-09-18T22:34:31.204Z,10.08
2022-09-18T22:37:00.256Z,10.06
2022-09-18T22:39:28.356Z,10.07
2022-09-18T22:41:55.931Z,10.05
2022-09-18T22:44:23.778Z,10.02
2022-09-18T22:46:52.927Z,9.97
2022-09-18T22:49:22.636Z,9.89
2022-09-18T22:51:50.989Z,9.85
2022-09-18T22:54:22.963Z,9.89
2022-09-18T22:56:50.574Z,9.86
2022-09-18T22:59:20.876Z,9.84
2022-09-18T23:02:03.898Z,9.83
2022-09-18T23:04:32.907Z,9.80
2022-09-18T23:07:01.231Z,9.76
2022-09-18T23:09:30.950Z,9.75
2022-09-18T23:11:58.939Z,9.79
2022-09-18T23:14:29.480Z,9.81
2022-09-18T23:16:58.854Z,9.82
2022-09-18T23:19:30.898Z,9.78
2022-09-18T23:21:59.126Z,9.82
2022-09-18T23:24:27.530Z,9.83
2022-09-18T23:26:58.148Z,9.81
2022-09-18T23:29:27.936Z,9.77
2022-09-18T23:31:56.305Z,9.81
2022-09-18T23:34:30.118Z,9.82
2022-09-18T23:36:58.209Z,9.85
2022-09-18T23:39:30.261Z,9.87
2022-09-18T23:41:59.479Z,9.86
2022-09-18T23:44:28.032Z,9.84
2022-09-18T23:46:55.887Z,9.81
2022-09-18T23:49:23.150Z,9.81
2022-09-18T23:51:53.443Z,9.80
2022-09-18T23:54:25.125Z,9.83
2022-09-18T23:56:53.259Z,9.81
2022-09-18T23:59:23.313Z,9.80
